Time;durP1;ratioP1;P1;durP2;ratioP2;P2;SDS_P1;SDS_P2;PMS_P1;PMS_P2;Temp;Humidity;BMP_temperature;BMP_pressure;BME280_temperature;BME280_humidity;BME280_pressure;Samples;Min_cycle;Max_cycle;Signal;HPM_P1;HPM_P2
2023/06/05 00:00:30;;;;;;;10.18;5.90;;;;;;;12.39;100.00;93966.59;4932576;29;20047;-59
2023/06/05 00:02:57;;;;;;;9.23;5.65;;;;;;;12.37;100.00;93971.75;4933080;29;20048;-61
2023/06/05 00:05:25;;;;;;;9.40;5.63;;;;;;;12.30;100.00;93971.94;4916300;29;20464;-62
2023/06/05 00:07:52;;;;;;;10.13;5.95;;;;;;;12.29;100.00;93967.63;4932214;29;20040;-65
2023/06/05 00:10:19;;;;;;;8.98;5.95;;;;;;;12.20;100.00;93965.44;4916292;29;20058;-60
2023/06/05 00:12:46;;;;;;;9.63;5.70;;;;;;;12.17;100.00;93964.31;4932360;29;20063;-63
2023/06/05 00:15:13;;;;;;;9.07;5.97;;;;;;;12.02;100.00;93963.06;4932884;29;20521;-59
2023/06/05 00:17:40;;;;;;;10.73;5.87;;;;;;;11.96;100.00;93971.00;4932281;29;20039;-60
2023/06/05 00:20:11;;;;;;;10.35;6.00;;;;;;;11.96;100.00;93973.00;4932527;29;20047;-60
2023/06/05 00:22:38;;;;;;;9.07;5.70;;;;;;;11.92;100.00;93970.31;4932052;29;20529;-60
2023/06/05 00:25:06;;;;;;;11.18;6.28;;;;;;;11.91;100.00;93971.53;4932733;29;20287;-59
2023/06/05 00:27:33;;;;;;;8.52;5.57;;;;;;;11.89;100.00;93965.66;4930432;29;20147;-61
2023/06/05 00:30:00;;;;;;;9.83;5.80;;;;;;;11.87;100.00;93970.78;4932354;29;20043;-61
2023/06/05 00:32:26;;;;;;;8.50;5.65;;;;;;;11.81;100.00;93972.44;4932181;29;20058;-65
2023/06/05 00:34:53;;;;;;;10.25;5.80;;;;;;;11.74;100.00;93969.84;4931050;29;20180;-60
2023/06/05 00:37:20;;;;;;;9.98;5.93;;;;;;;11.75;100.00;93963.94;4932043;29;20045;-60
2023/06/05 00:39:47;;;;;;;10.45;5.97;;;;;;;11.74;100.00;93967.88;4930942;29;20058;-61
2023/06/05 00:42:14;;;;;;;9.50;5.90;;;;;;;11.68;100.00;93960.53;4931775;29;20036;-62
2023/06/05 00:44:40;;;;;;;9.20;5.80;;;;;;;11.66;100.00;93962.94;4931132;29;20058;-60
2023/06/05 00:47:07;;;;;;;8.98;6.00;;;;;;;11.58;100.00;93968.56;4931908;29;20451;-63
2023/06/05 00:49:34;;;;;;;200.93;122.93;;;;;;;11.57;100.00;93964.28;4930894;29;20056;-60
2023/06/05 00:52:01;;;;;;;52.35;29.92;;;;;;;11.54;100.00;93964.31;4931760;29;20094;-60
2023/06/05 00:54:28;;;;;;;20.40;12.73;;;;;;;11.50;100.00;93958.88;4914449;29;20062;-60
2023/06/05 00:56:55;;;;;;;14.55;9.05;;;;;;;11.52;100.00;93970.25;4930658;29;20301;-63
2023/06/05 00:59:22;;;;;;;11.70;7.00;;;;;;;11.45;100.00;93966.84;4931511;29;20052;-61
2023/06/05 01:01:50;;;;;;;9.55;6.10;;;;;;;11.28;100.00;93966.72;4914167;29;20047;-62
2023/06/05 01:04:17;;;;;;;9.27;6.10;;;;;;;11.22;100.00;93962.91;4914695;29;20503;-60
2023/06/05 01:06:45;;;;;;;10.73;6.00;;;;;;;11.21;100.00;93964.13;4930673;29;20056;-59
2023/06/05 01:09:13;;;;;;;10.90;6.00;;;;;;;11.20;100.00;93963.31;4931612;29;20040;-59
2023/06/05 01:11:47;;;;;;;10.93;5.55;;;;;;;11.14;100.00;93964.22;4930671;29;20510;-59
2023/06/05 01:14:20;;;;;;;88.32;55.85;;;;;;;11.14;100.00;93969.72;4931417;29;20050;-60
2023/06/05 01:16:53;;;;;;;359.48;202.05;;;;;;;11.11;100.00;93967.81;4930668;29;20547;-59
2023/06/05 01:19:24;;;;;;;48.40;26.43;;;;;;;11.06;100.00;93960.81;4931448;29;20062;-61
2023/06/05 01:21:51;;;;;;;22.95;13.13;;;;;;;10.99;100.00;93966.44;4930197;29;20056;-59
2023/06/05 01:24:22;;;;;;;11.77;7.53;;;;;;;10.93;100.00;93959.88;4931503;29;20057;-59
2023/06/05 01:26:52;;;;;;;10.48;5.82;;;;;;;10.88;100.00;93960.34;4929716;29;20056;-59
2023/06/05 01:29:33;;;;;;;10.13;6.25;;;;;;;10.83;100.00;93958.84;4912448;29;20477;-59
2023/06/05 01:32:06;;;;;;;9.90;5.83;;;;;;;10.82;100.00;93964.75;4930502;29;20223;-60
2023/06/05 01:34:36;;;;;;;9.23;5.70;;;;;;;10.78;100.00;93956.56;4931180;29;20036;-60
2023/06/05 01:37:03;;;;;;;9.90;5.80;;;;;;;10.66;100.00;93959.88;4931737;29;20408;-59
2023/06/05 01:39:31;;;;;;;9.65;5.90;;;;;;;10.64;100.00;93954.03;4931180;29;20056;-62
2023/06/05 01:41:58;;;;;;;8.90;5.72;;;;;;;10.63;100.00;93964.25;4899498;29;20051;-59
2023/06/05 01:44:26;;;;;;;11.43;7.10;;;;;;;10.62;100.00;93953.69;4931669;29;20500;-60
2023/06/05 01:46:53;;;;;;;19.75;10.88;;;;;;;10.57;100.00;93944.72;4930937;29;20052;-60
2023/06/05 01:49:21;;;;;;;11.43;7.50;;;;;;;10.55;100.00;93952.59;4931577;29;20547;-64
2023/06/05 01:51:48;;;;;;;11.73;6.03;;;;;;;10.51;100.00;93954.59;4930682;29;20044;-59
2023/06/05 01:54:18;;;;;;;10.90;6.25;;;;;;;10.52;100.00;93953.44;4931492;29;20047;-62
2023/06/05 01:56:47;;;;;;;12.17;5.83;;;;;;;10.44;100.00;93954.69;4930916;29;20393;-59
2023/06/05 01:59:15;;;;;;;9.65;5.90;;;;;;;10.40;100.00;93956.72;4914552;29;20056;-59
2023/06/05 02:01:44;;;;;;;10.77;5.88;;;;;;;10.44;100.00;93940.22;4930692;29;20051;-64
2023/06/05 02:04:11;;;;;;;9.75;5.63;;;;;;;10.37;100.00;93952.06;4914979;29;20507;-64
2023/06/05 02:06:43;;;;;;;9.60;6.00;;;;;;;10.34;100.00;93947.41;4930868;29;20059;-59
2023/06/05 02:09:10;;;;;;;9.23;5.80;;;;;;;10.36;100.00;93945.03;4931377;29;20039;-59
2023/06/05 02:11:42;;;;;;;9.88;6.13;;;;;;;10.30;100.00;93946.66;4930696;29;20106;-63
2023/06/05 02:14:12;;;;;;;10.80;6.70;;;;;;;10.27;100.00;93944.75;4931353;29;20381;-59
2023/06/05 02:16:40;;;;;;;10.15;6.00;;;;;;;10.25;100.00;93947.13;4930452;29;20086;-60
2023/06/05 02:19:07;;;;;;;10.48;6.13;;;;;;;10.22;100.00;93943.22;4934322;29;20047;-58
2023/06/05 02:21:35;;;;;;;9.30;6.07;;;;;;;10.13;100.00;93941.00;4932585;29;20495;-59
2023/06/05 02:24:02;;;;;;;11.98;6.15;;;;;;;10.12;100.00;93944.13;4934749;29;20120;-61
2023/06/05 02:26:30;;;;;;;10.60;6.50;;;;;;;10.10;100.00;93944.56;4932346;29;20044;-59
2023/06/05 02:28:58;;;;;;;11.45;6.22;;;;;;;10.09;100.00;93943.00;4934372;29;20043;-62
2023/06/05 02:31:25;;;;;;;11.32;6.70;;;;;;;9.99;100.00;93943.91;4914068;29;20063;-60
2023/06/05 02:33:53;;;;;;;9.23;5.90;;;;;;;9.93;100.00;93945.56;4934026;29;20158;-60
2023/06/05 02:36:22;;;;;;;11.18;6.50;;;;;;;9.93;100.00;93940.06;4934717;29;20051;-61
2023/06/05 02:38:52;;;;;;;11.98;6.57;;;;;;;9.86;100.00;93940.94;4933732;29;21692;-63
2023/06/05 02:41:21;;;;;;;10.40;6.40;;;;;;;9.81;100.00;93949.63;4934342;29;20052;-60
2023/06/05 02:43:48;;;;;;;10.35;6.18;;;;;;;9.80;100.00;93937.13;4933852;29;20047;-60
2023/06/05 02:46:15;;;;;;;74.53;44.33;;;;;;;9.77;100.00;93948.88;4886224;29;20051;-65
2023/06/05 02:48:42;;;;;;;14.98;8.98;;;;;;;9.63;100.00;93949.81;4932606;29;20046;-60
2023/06/05 02:51:10;;;;;;;13.82;7.47;;;;;;;9.33;100.00;93948.56;4928156;29;20063;-63
2023/06/05 02:53:37;;;;;;;10.00;6.43;;;;;;;9.13;100.00;93942.09;4933802;29;20055;-62
2023/06/05 02:56:04;;;;;;;12.25;6.43;;;;;;;9.09;100.00;93952.31;4933942;29;20407;-58
2023/06/05 02:58:33;;;;;;;10.97;6.00;;;;;;;9.17;100.00;93945.59;4933813;29;20428;-60
2023/06/05 03:01:06;;;;;;;11.57;6.10;;;;;;;9.16;100.00;93939.34;4917131;29;20054;-60
2023/06/05 03:03:34;;;;;;;9.82;6.47;;;;;;;9.18;100.00;93939.72;4933534;29;20412;-60
2023/06/05 03:06:04;;;;;;;9.50;5.90;;;;;;;9.23;100.00;93941.22;4933950;29;20110;-61
2023/06/05 03:08:32;;;;;;;9.98;6.07;;;;;;;9.28;100.00;93940.81;4933350;29;20415;-61
2023/06/05 03:11:00;;;;;;;10.07;6.23;;;;;;;9.32;100.00;93936.06;4933941;29;20051;-60
2023/06/05 03:13:27;;;;;;;9.65;6.00;;;;;;;9.33;100.00;93945.81;4933783;29;20051;-65
2023/06/05 03:15:56;;;;;;;10.10;6.53;;;;;;;9.34;100.00;93941.13;4933577;29;20046;-60
2023/06/05 03:18:25;;;;;;;11.07;6.85;;;;;;;9.08;100.00;93940.59;4933628;29;20126;-60
2023/06/05 03:20:55;;;;;;;10.50;6.40;;;;;;;9.18;100.00;93945.19;4916157;29;20047;-65
2023/06/05 03:23:29;;;;;;;10.07;6.40;;;;;;;9.24;100.00;93945.53;4933619;29;20385;-62
2023/06/05 03:25:56;;;;;;;9.57;6.40;;;;;;;9.20;100.00;93947.53;4932933;29;20492;-59
2023/06/05 03:28:23;;;;;;;10.15;6.72;;;;;;;9.15;100.00;93946.00;4933293;29;20074;-59
2023/06/05 03:30:50;;;;;;;13.68;7.50;;;;;;;9.14;100.00;93949.16;4933037;29;20523;-59
2023/06/05 03:33:17;;;;;;;12.75;7.55;;;;;;;9.17;100.00;93957.31;4933354;29;20070;-63
2023/06/05 03:35:47;;;;;;;10.70;6.23;;;;;;;9.23;100.00;93956.88;4933113;29;20052;-59
2023/06/05 03:38:14;;;;;;;12.50;7.03;;;;;;;9.19;100.00;93952.25;4933562;29;20055;-60
2023/06/05 03:40:41;;;;;;;12.13;7.47;;;;;;;9.15;100.00;93950.69;4916185;29;20051;-61
2023/06/05 03:43:08;;;;;;;12.52;6.63;;;;;;;8.99;100.00;93946.56;4933515;29;20035;-64
2023/06/05 03:45:36;;;;;;;10.35;6.95;;;;;;;9.12;100.00;93951.53;4932951;29;20389;-58
2023/06/05 03:48:03;;;;;;;11.93;7.03;;;;;;;9.10;100.00;93948.41;4933639;29;20156;-58
2023/06/05 03:50:31;;;;;;;11.30;6.82;;;;;;;8.77;100.00;93951.44;4915965;29;20109;-59
2023/06/05 03:53:02;;;;;;;12.55;6.72;;;;;;;8.97;100.00;93957.13;4931325;29;20563;-59
2023/06/05 03:55:41;;;;;;;11.60;6.65;;;;;;;9.16;100.00;93957.75;4922515;29;20106;-59
2023/06/05 03:58:13;;;;;;;11.35;6.88;;;;;;;9.24;100.00;93955.72;4933220;29;20040;-59
2023/06/05 04:00:48;;;;;;;12.47;7.10;;;;;;;9.26;100.00;93961.56;4932430;29;20052;-63
2023/06/05 04:03:15;;;;;;;11.65;6.50;;;;;;;9.37;100.00;93963.00;4933131;29;20398;-63
2023/06/05 04:05:42;;;;;;;11.82;6.70;;;;;;;9.42;100.00;93956.31;4932589;29;20063;-60
2023/06/05 04:08:10;;;;;;;11.43;6.93;;;;;;;9.51;100.00;93958.56;4932847;29;20046;-58
2023/06/05 04:10:37;;;;;;;12.40;6.88;;;;;;;9.40;100.00;93959.47;4915369;29;20046;-59
2023/06/05 04:13:04;;;;;;;12.30;6.87;;;;;;;9.45;100.00;93960.19;4933058;29;20392;-59
2023/06/05 04:15:33;;;;;;;10.70;6.70;;;;;;;9.55;100.00;93962.81;4919848;29;20051;-60
2023/06/05 04:18:00;;;;;;;11.57;6.85;;;;;;;9.65;100.00;93961.16;4932899;29;20062;-64
2023/06/05 04:20:27;;;;;;;10.98;6.80;;;;;;;9.75;100.00;93951.25;4932748;29;20515;-60
2023/06/05 04:22:54;;;;;;;12.15;7.38;;;;;;;9.58;100.00;93953.78;4931588;29;20044;-66
2023/06/05 04:25:20;;;;;;;10.20;6.70;;;;;;;9.76;100.00;93950.84;4920370;29;20457;-61
2023/06/05 04:27:51;;;;;;;11.18;6.97;;;;;;;9.78;100.00;93959.44;4931973;29;20416;-59
2023/06/05 04:30:18;;;;;;;14.85;6.65;;;;;;;9.90;100.00;93951.84;4932558;29;20057;-59
2023/06/05 04:32:52;;;;;;;11.13;6.18;;;;;;;9.94;100.00;93960.81;4932015;29;20055;-59
2023/06/05 04:35:21;;;;;;;13.85;6.32;;;;;;;10.04;100.00;93957.19;4932606;29;20042;-62
2023/06/05 04:37:48;;;;;;;13.03;6.53;;;;;;;10.08;100.00;93957.91;4932073;29;20040;-63
2023/06/05 04:40:18;;;;;;;10.35;6.40;;;;;;;10.14;100.00;93960.94;4932049;29;20052;-64
2023/06/05 04:42:44;;;;;;;12.90;6.43;;;;;;;10.22;100.00;93962.41;4931974;29;20152;-59
2023/06/05 04:45:11;;;;;;;12.20;6.50;;;;;;;10.33;100.00;93960.34;4932303;29;20043;-64
2023/06/05 04:47:38;;;;;;;10.13;6.30;;;;;;;10.41;100.00;93957.50;4931688;29;20058;-61
2023/06/05 04:50:06;;;;;;;9.60;6.57;;;;;;;10.44;100.00;93957.44;4931831;29;20039;-58
2023/06/05 04:52:39;;;;;;;12.75;7.13;;;;;;;10.54;100.00;93964.78;4929857;29;20048;-59
2023/06/05 04:55:07;;;;;;;11.63;7.47;;;;;;;10.58;100.00;93964.69;4932068;29;20039;-59
2023/06/05 04:57:34;;;;;;;12.75;7.68;;;;;;;10.51;100.00;93965.59;4931493;29;20349;-61
2023/06/05 05:00:04;;;;;;;11.75;6.72;;;;;;;10.58;100.00;93962.75;4931761;29;20043;-59
2023/06/05 05:02:30;;;;;;;10.77;6.77;;;;;;;10.74;100.00;93964.84;4931122;29;20054;-62
2023/06/05 05:04:57;;;;;;;10.75;6.60;;;;;;;10.52;100.00;93975.38;4931721;29;20035;-60
2023/06/05 05:07:26;;;;;;;11.73;7.00;;;;;;;10.33;100.00;93962.31;4932109;29;20047;-58
2023/06/05 05:09:53;;;;;;;13.32;6.93;;;;;;;10.67;100.00;93958.72;4931057;29;20055;-62
2023/06/05 05:12:20;;;;;;;11.77;7.35;;;;;;;10.80;100.00;93967.91;4931873;29;20047;-58
2023/06/05 05:14:46;;;;;;;14.77;7.70;;;;;;;10.95;100.00;93961.00;4929968;29;20069;-60
2023/06/05 05:17:16;;;;;;;11.88;7.55;;;;;;;10.93;100.00;93955.16;4915007;29;20066;-62
2023/06/05 05:19:43;;;;;;;11.68;7.47;;;;;;;12.21;100.00;93952.44;4914274;29;20052;-59
2023/06/05 05:22:10;;;;;;;12.23;7.65;;;;;;;15.29;91.51;93960.88;4914628;29;20039;-62
2023/06/05 05:24:37;;;;;;;11.60;7.68;;;;;;;18.00;74.46;93958.63;4931229;29;20043;-60
2023/06/05 05:27:04;;;;;;;11.87;7.07;;;;;;;19.72;63.80;93947.19;4931773;29;20377;-63
2023/06/05 05:29:33;;;;;;;9.55;7.03;;;;;;;20.74;58.11;93944.28;4931057;29;20055;-57
2023/06/05 05:31:59;;;;;;;12.27;7.90;;;;;;;20.37;54.15;93949.44;4914986;29;20039;-59
2023/06/05 05:34:26;;;;;;;11.07;7.40;;;;;;;21.64;51.27;93942.13;4931748;29;20052;-59
2023/06/05 05:36:53;;;;;;;9.73;7.38;;;;;;;21.33;51.07;93947.00;4931037;29;20048;-60
2023/06/05 05:39:20;;;;;;;9.53;6.90;;;;;;;21.22;51.45;93952.41;4931846;29;20055;-60
2023/06/05 05:41:46;;;;;;;11.00;7.00;;;;;;;22.80;47.10;93954.38;4930857;29;20051;-65
2023/06/05 05:44:13;;;;;;;10.45;7.20;;;;;;;23.65;44.43;93955.03;4931588;29;20055;-61
2023/06/05 05:46:40;;;;;;;9.23;7.03;;;;;;;22.04;45.92;93949.72;4914063;29;20054;-59
2023/06/05 05:49:07;;;;;;;11.27;7.22;;;;;;;22.26;46.30;93943.66;4930273;29;20050;-59
2023/06/05 05:51:33;;;;;;;10.13;6.97;;;;;;;21.91;46.26;93950.09;4913895;29;20048;-59
2023/06/05 05:54:00;;;;;;;10.07;6.55;;;;;;;22.05;46.72;93950.50;4934655;29;20044;-57
2023/06/05 05:56:27;;;;;;;12.52;6.80;;;;;;;22.28;44.89;93948.78;4935160;29;20056;-58
2023/06/05 05:58:54;;;;;;;12.40;6.43;;;;;;;20.39;46.72;93953.28;4934424;29;21274;-57
2023/06/05 06:01:21;;;;;;;11.93;5.82;;;;;;;22.95;44.76;93943.03;4933935;29;20383;-58
2023/06/05 06:03:48;;;;;;;11.40;5.73;;;;;;;21.49;46.05;93940.16;4934490;29;20048;-58
2023/06/05 06:06:16;;;;;;;9.95;6.40;;;;;;;20.17;46.03;93944.50;4918013;29;20118;-60
2023/06/05 06:08:42;;;;;;;8.68;6.43;;;;;;;19.52;51.55;93942.16;4934703;29;20404;-62
2023/06/05 06:11:09;;;;;;;10.88;6.38;;;;;;;19.71;53.37;93948.41;4934877;29;20047;-58
2023/06/05 06:13:36;;;;;;;9.65;5.88;;;;;;;22.48;45.53;93940.34;4934197;29;20051;-59
2023/06/05 06:16:03;;;;;;;8.07;6.20;;;;;;;22.21;44.48;93938.75;4917549;29;20044;-57
2023/06/05 06:18:30;;;;;;;8.65;6.10;;;;;;;20.66;50.09;93940.34;4934285;29;20051;-58
2023/06/05 06:20:58;;;;;;;10.07;6.20;;;;;;;20.80;48.40;93944.38;4932849;29;20118;-57
2023/06/05 06:23:25;;;;;;;9.55;6.05;;;;;;;22.24;44.60;93939.84;4934515;29;20456;-57
2023/06/05 06:25:52;;;;;;;8.98;6.30;;;;;;;19.36;50.29;93946.13;4933728;29;20051;-60
2023/06/05 06:28:19;;;;;;;8.83;6.70;;;;;;;20.98;48.39;93949.75;4934508;29;20051;-58
2023/06/05 06:30:46;;;;;;;7.93;6.38;;;;;;;24.04;42.05;93940.47;4927651;29;20063;-60
2023/06/05 06:33:13;;;;;;;9.35;6.07;;;;;;;21.54;45.80;93945.03;4934579;29;20487;-57
2023/06/05 06:35:40;;;;;;;12.93;6.38;;;;;;;20.42;48.88;93943.94;4933944;29;20539;-58
2023/06/05 06:38:07;;;;;;;7.70;5.43;;;;;;;24.77;41.08;93937.13;4934351;29;20070;-59
2023/06/05 06:40:34;;;;;;;7.37;5.70;;;;;;;25.77;38.61;93943.97;4933715;29;20047;-58
2023/06/05 06:43:00;;;;;;;10.35;5.60;;;;;;;26.29;36.87;93932.06;4917065;29;20070;-62
2023/06/05 06:45:27;;;;;;;7.40;6.05;;;;;;;21.97;40.93;93950.13;4934188;29;20040;-58
2023/06/05 06:47:54;;;;;;;9.82;5.10;;;;;;;26.88;35.70;93944.03;4933281;29;20545;-58
2023/06/05 06:50:34;;;;;;;7.47;5.28;;;;;;;28.31;32.77;93950.66;4933665;29;20048;-58
2023/06/05 06:53:01;;;;;;;7.70;4.43;;;;;;;29.30;30.66;93941.88;4934139;29;20048;-58
2023/06/05 06:55:28;;;;;;;8.95;4.82;;;;;;;29.91;29.38;93936.47;4917091;29;20459;-58
2023/06/05 06:57:54;;;;;;;7.90;5.32;;;;;;;28.23;30.96;93946.91;4933168;29;20600;-62
2023/06/05 07:00:23;;;;;;;9.00;5.22;;;;;;;22.51;40.28;93950.53;4934178;29;20114;-58
2023/06/05 07:02:50;;;;;;;7.80;5.13;;;;;;;26.58;34.73;93943.97;4932012;29;20142;-61
2023/06/05 07:05:19;;;;;;;8.40;5.00;;;;;;;26.51;35.44;93941.66;4933835;29;20044;-58
2023/06/05 07:07:46;;;;;;;7.18;4.40;;;;;;;28.12;32.19;93936.53;4933606;29;20043;-58
2023/06/05 07:10:13;;;;;;;6.82;4.57;;;;;;;27.96;32.30;93940.31;4933734;29;20078;-62
2023/06/05 07:12:39;;;;;;;8.88;4.72;;;;;;;26.68;33.00;93944.41;4933600;29;20059;-58
2023/06/05 07:15:07;;;;;;;7.43;4.72;;;;;;;26.06;34.68;93941.91;4933608;29;20055;-59
2023/06/05 07:17:33;;;;;;;8.53;4.60;;;;;;;28.08;31.92;93941.72;4933475;29;20052;-60
2023/06/05 07:20:00;;;;;;;8.15;4.80;;;;;;;29.06;30.87;93935.78;4916611;29;20059;-63
2023/06/05 07:22:30;;;;;;;7.68;4.95;;;;;;;26.99;33.46;93943.19;4932432;29;20461;-59
2023/06/05 07:24:57;;;;;;;6.93;4.65;;;;;;;29.72;29.81;93931.69;4932758;29;20565;-58
2023/06/05 07:27:24;;;;;;;10.40;5.13;;;;;;;28.51;31.11;93935.28;4933982;29;20044;-59
2023/06/05 07:29:53;;;;;;;8.93;5.30;;;;;;;29.62;29.50;93931.31;4933174;29;20048;-59
2023/06/05 07:32:20;;;;;;;7.18;4.80;;;;;;;32.48;26.04;93929.41;4933534;29;20051;-63
2023/06/05 07:34:48;;;;;;;7.22;5.10;;;;;;;31.83;25.98;93924.47;4916319;29;20059;-59
2023/06/05 07:37:15;;;;;;;7.13;5.20;;;;;;;28.08;31.00;93930.44;4916952;29;20056;-58
2023/06/05 07:39:42;;;;;;;7.72;4.82;;;;;;;30.69;28.43;93910.69;4933079;29;20508;-59
2023/06/05 07:42:08;;;;;;;8.07;4.77;;;;;;;31.17;27.57;93917.09;4933512;29;20056;-63
2023/06/05 07:44:35;;;;;;;7.55;4.50;;;;;;;33.52;25.14;93910.97;4932899;29;20050;-60
2023/06/05 07:47:02;;;;;;;8.82;4.97;;;;;;;29.13;29.34;93922.38;4933428;29;20051;-60
2023/06/05 07:49:31;;;;;;;8.52;4.90;;;;;;;28.29;31.67;93928.63;4933009;29;20424;-58
2023/06/05 07:51:58;;;;;;;9.15;4.30;;;;;;;32.70;27.59;93916.66;4933132;29;20050;-63
2023/06/05 07:54:25;;;;;;;8.17;4.70;;;;;;;33.83;24.88;93914.59;4932975;29;20066;-58
2023/06/05 07:56:52;;;;;;;6.88;4.82;;;;;;;31.01;27.95;93914.13;4915775;29;20477;-59
2023/06/05 07:59:24;;;;;;;7.30;4.40;;;;;;;32.04;27.17;93918.78;4933016;29;20497;-63
2023/06/05 08:01:51;;;;;;;6.82;4.68;;;;;;;35.09;23.78;93900.16;4932332;29;20051;-58
2023/06/05 08:04:19;;;;;;;7.65;4.22;;;;;;;34.29;24.19;93908.09;4933151;29;20052;-59
2023/06/05 08:06:46;;;;;;;7.20;4.70;;;;;;;30.27;29.15;93905.66;4932572;29;20056;-59
2023/06/05 08:09:13;;;;;;;9.25;4.80;;;;;;;32.08;27.16;93901.41;4932861;29;20044;-64
2023/06/05 08:11:43;;;;;;;6.38;4.70;;;;;;;32.04;27.39;93902.50;4918805;29;20355;-60
2023/06/05 08:14:10;;;;;;;7.55;4.78;;;;;;;34.77;24.40;93893.88;4933010;29;20098;-60
2023/06/05 08:16:36;;;;;;;7.28;4.47;;;;;;;31.92;26.18;93892.75;4931643;29;20485;-58
2023/06/05 08:19:03;;;;;;;7.53;4.97;;;;;;;27.07;33.15;93901.91;4915950;29;20090;-64
2023/06/05 08:21:30;;;;;;;7.05;4.80;;;;;;;27.65;31.79;93906.50;4930200;29;20059;-57
2023/06/05 08:23:57;;;;;;;7.47;5.43;;;;;;;24.01;35.89;93905.81;4932508;29;20476;-58
2023/06/05 08:26:25;;;;;;;9.70;5.57;;;;;;;21.65;36.81;93907.34;4932271;29;20055;-61
2023/06/05 08:28:53;;;;;;;7.13;5.45;;;;;;;24.56;34.95;93892.44;4931465;29;20055;-61
2023/06/05 08:31:20;;;;;;;7.87;5.40;;;;;;;27.33;31.84;93894.28;4931861;29;20048;-61
2023/06/05 08:33:47;;;;;;;8.10;5.32;;;;;;;25.96;31.36;93902.03;4931561;29;20059;-59
2023/06/05 08:36:14;;;;;;;7.57;5.80;;;;;;;23.46;34.39;93901.44;4931903;29;20046;-58
2023/06/05 08:38:41;;;;;;;7.50;5.10;;;;;;;25.15;31.96;93901.91;4931407;29;20102;-62
2023/06/05 08:41:10;;;;;;;7.60;5.45;;;;;;;23.37;35.71;93893.25;4931409;29;20048;-58
2023/06/05 08:43:39;;;;;;;8.10;5.67;;;;;;;22.00;36.92;93900.91;4931237;29;20052;-57
2023/06/05 08:46:08;;;;;;;8.02;5.18;;;;;;;25.45;32.21;93890.16;4931317;29;20047;-58
2023/06/05 08:48:41;;;;;;;8.18;5.60;;;;;;;27.10;28.79;93888.81;4914582;29;20059;-61
2023/06/05 08:51:11;;;;;;;11.98;5.35;;;;;;;26.17;31.51;93888.38;4931477;29;20106;-60
2023/06/05 08:53:42;;;;;;;8.23;6.05;;;;;;;22.10;37.81;93900.25;4931045;29;20043;-60
2023/06/05 08:56:08;;;;;;;16.17;6.00;;;;;;;23.26;36.65;93903.13;4931404;29;20519;-57
2023/06/05 08:58:36;;;;;;;9.18;5.70;;;;;;;22.29;39.06;93897.16;4931043;29;20424;-57
2023/06/05 09:01:03;;;;;;;6.93;5.30;;;;;;;23.58;34.98;93891.81;4931393;29;20606;-58
2023/06/05 09:03:33;;;;;;;8.02;5.53;;;;;;;23.95;35.18;93895.84;4931043;29;20051;-58
2023/06/05 09:06:02;;;;;;;11.35;6.18;;;;;;;22.80;37.89;93901.22;4931573;29;20117;-58
2023/06/05 09:08:31;;;;;;;10.13;5.90;;;;;;;22.10;40.26;93899.50;4931458;29;20412;-58
2023/06/05 09:11:27;;;;;;;10.20;6.40;;;;;;;21.53;41.83;93898.81;4930729;29;20417;-62
2023/06/05 09:14:01;;;;;;;9.25;6.88;;;;;;;20.86;44.46;93903.41;4920321;29;20186;-59
2023/06/05 09:16:37;;;;;;;10.15;7.18;;;;;;;20.32;48.35;93909.06;4931449;29;20043;-65
2023/06/05 09:19:06;;;;;;;10.10;6.80;;;;;;;21.31;45.97;93906.88;4930165;29;21436;-60
2023/06/05 09:21:33;;;;;;;9.03;6.60;;;;;;;21.61;46.92;93901.19;4928917;29;20063;-62
2023/06/05 09:24:09;;;;;;;8.70;6.60;;;;;;;22.50;44.36;93903.50;4931775;29;20442;-60
2023/06/05 09:26:56;;;;;;;8.77;6.30;;;;;;;22.08;45.45;93899.97;4930957;29;20065;-59
2023/06/05 09:29:33;;;;;;;8.98;6.25;;;;;;;23.77;40.81;93895.00;4931668;29;20154;-57
2023/06/05 09:32:08;;;;;;;8.25;5.90;;;;;;;23.24;41.95;93899.25;4930764;29;21636;-60
2023/06/05 09:34:36;;;;;;;13.77;6.43;;;;;;;23.77;41.17;93894.22;4931233;29;20158;-63
2023/06/05 09:37:05;;;;;;;8.70;6.20;;;;;;;23.00;42.73;93897.56;4931861;29;20047;-58
2023/06/05 09:39:34;;;;;;;8.95;6.07;;;;;;;22.49;42.53;93894.31;4930817;29;20093;-65
2023/06/05 09:42:01;;;;;;;9.27;6.00;;;;;;;22.49;43.82;93902.69;4914603;29;20060;-60
2023/06/05 09:44:29;;;;;;;8.10;6.28;;;;;;;22.06;43.63;93896.16;4931323;29;20058;-61
2023/06/05 09:47:17;;;;;;;8.73;6.43;;;;;;;21.01;45.29;93897.81;4930389;29;21062;-65
2023/06/05 09:49:44;;;;;;;9.40;6.30;;;;;;;20.94;44.36;93896.94;4931047;29;20058;-61
2023/06/05 09:52:12;;;;;;;8.90;6.60;;;;;;;22.08;41.40;93897.19;4931364;29;20052;-60
2023/06/05 09:54:41;;;;;;;8.00;6.00;;;;;;;24.01;37.32;93888.22;4930705;29;20070;-58
2023/06/05 09:57:11;;;;;;;9.13;5.78;;;;;;;23.63;37.64;93893.13;4931695;29;20043;-58
2023/06/05 09:59:48;;;;;;;11.23;6.00;;;;;;;22.30;41.75;93893.13;4930590;29;20047;-61
2023/06/05 10:02:17;;;;;;;7.47;5.45;;;;;;;23.87;39.53;93884.34;4931356;29;20044;-63
2023/06/05 10:04:51;;;;;;;8.98;5.88;;;;;;;24.01;38.54;93882.63;4930566;29;20381;-62
2023/06/05 10:07:18;;;;;;;8.68;6.28;;;;;;;22.73;41.46;93901.66;4931255;29;20058;-59
2023/06/05 10:09:49;;;;;;;8.82;6.38;;;;;;;22.12;43.03;93892.16;4930532;29;20043;-59
2023/06/05 10:12:17;;;;;;;10.27;6.00;;;;;;;24.70;38.09;93885.84;4931194;29;20056;-58
2023/06/05 10:14:43;;;;;;;9.95;5.60;;;;;;;27.52;33.71;93883.06;4930751;29;20055;-58
2023/06/05 10:17:12;;;;;;;7.93;5.72;;;;;;;28.64;32.42;93870.44;4931217;29;20040;-58
2023/06/05 10:19:43;;;;;;;6.63;5.20;;;;;;;28.97;30.61;93867.63;4930934;29;20055;-58
2023/06/05 10:22:11;;;;;;;9.75;5.50;;;;;;;27.56;32.09;93877.91;4925849;29;20050;-58
2023/06/05 10:24:45;;;;;;;6.17;5.27;;;;;;;27.27;33.05;93875.38;4930597;29;20047;-58
2023/06/05 10:27:31;;;;;;;9.50;5.30;;;;;;;27.16;33.00;93877.50;4930825;29;20094;-58
2023/06/05 10:30:07;;;;;;;7.57;5.80;;;;;;;23.34;38.67;93881.00;4929965;29;20468;-65
2023/06/05 10:32:43;;;;;;;8.32;5.63;;;;;;;25.01;35.82;93878.44;4930536;29;19923;-60
2023/06/05 10:35:31;;;;;;;8.20;5.70;;;;;;;26.11;34.54;93867.97;4931228;29;20505;-58
2023/06/05 10:38:20;;;;;;;7.90;5.70;;;;;;;26.53;32.90;93871.56;4930323;29;20784;-59
2023/06/05 10:40:58;;;;;;;7.03;5.35;;;;;;;26.59;33.09;93868.75;4916974;29;20064;-61
2023/06/05 10:43:49;;;;;;;8.98;5.90;;;;;;;25.60;34.07;93864.59;4934465;29;20056;-58
2023/06/05 10:46:28;;;;;;;8.73;6.20;;;;;;;23.99;36.58;93857.88;4921721;29;20070;-57
2023/06/05 10:49:19;;;;;;;8.27;6.05;;;;;;;23.36;37.52;93869.28;4933520;29;20737;-63
2023/06/05 10:51:50;;;;;;;8.67;5.90;;;;;;;22.67;38.71;93873.63;4908560;29;20078;-57
2023/06/05 10:54:23;;;;;;;7.88;6.20;;;;;;;23.55;38.28;93866.88;4934232;29;20044;-57
2023/06/05 10:57:02;;;;;;;10.55;5.90;;;;;;;24.05;37.29;93861.47;4933788;29;20062;-57
2023/06/05 10:59:39;;;;;;;8.32;6.20;;;;;;;24.99;35.59;93866.19;4933709;29;20039;-59
2023/06/05 11:02:06;;;;;;;8.88;6.10;;;;;;;24.98;35.73;93876.66;4933305;29;20114;-57
2023/06/05 11:04:46;;;;;;;8.60;6.43;;;;;;;22.67;38.88;93864.47;4933586;29;20060;-63
2023/06/05 11:07:23;;;;;;;9.27;6.40;;;;;;;21.66;41.21;93880.94;4934231;29;20044;-59
2023/06/05 11:10:05;;;;;;;8.00;6.50;;;;;;;21.16;43.00;93876.19;4933395;29;20056;-60
2023/06/05 11:12:35;;;;;;;8.68;5.80;;;;;;;23.03;40.06;93873.44;4933540;29;20506;-63
2023/06/05 11:15:03;;;;;;;9.52;6.25;;;;;;;23.56;38.76;93874.75;4921869;29;20098;-60
2023/06/05 11:17:38;;;;;;;6.87;5.73;;;;;;;24.47;37.84;93867.44;4933613;29;20098;-58
2023/06/05 11:20:28;;;;;;;7.18;5.70;;;;;;;25.09;36.45;93871.03;4921647;29;20098;-60
2023/06/05 11:22:55;;;;;;;9.40;6.53;;;;;;;23.71;37.99;93886.53;4932877;29;20827;-60
2023/06/05 11:25:24;;;;;;;7.88;5.60;;;;;;;24.64;36.36;93870.28;4933833;29;20043;-60
2023/06/05 11:27:56;;;;;;;8.52;6.47;;;;;;;22.95;39.65;93870.28;4933199;29;20044;-60
2023/06/05 11:30:26;;;;;;;8.50;6.30;;;;;;;24.68;37.26;93859.56;4933836;29;20053;-61
2023/06/05 11:33:17;;;;;;;7.68;6.00;;;;;;;25.26;35.99;93853.44;4932992;29;20909;-63
2023/06/05 11:35:47;;;;;;;9.85;6.25;;;;;;;24.67;35.99;93855.22;4933274;29;20047;-57